Time;durP1;ratioP1;P1;durP2;ratioP2;P2;SDS_P1;SDS_P2;PMS_P1;PMS_P2;Temp;Humidity;BMP_temperature;BMP_pressure;BME280_temperature;BME280_humidity;BME280_pressure;Samples;Min_cycle;Max_cycle;Signal;HPM_P1;HPM_P2
2023/03/10 00:08:24;;;;;;;16.50;6.90;;;;;;;4.03;53.55;98840.73;670354;1274;138375;-83
2023/03/10 00:23:29;;;;;;;11.10;6.40;;;;;;;4.11;53.96;98822.98;669411;1262;138248;-84
2023/03/10 00:38:33;;;;;;;11.00;4.50;;;;;;;4.18;54.13;98798.70;669531;1263;137868;-86
2023/03/10 01:05:59;;;;;;;22.20;10.30;;;;;;;4.10;54.36;98756.25;651953;1300;544956;-84
2023/03/10 01:21:06;;;;;;;18.30;7.90;;;;;;;4.04;54.32;98738.30;666318;1271;137970;-84
2023/03/10 01:36:14;;;;;;;21.00;7.20;;;;;;;4.05;54.29;98730.55;666426;1272;137426;-84
2023/03/10 01:51:20;;;;;;;11.80;6.10;;;;;;;3.68;56.24;98704.14;671784;1262;137805;-91
2023/03/10 02:06:25;;;;;;;11.60;5.50;;;;;;;3.51;57.99;98678.91;672009;1262;138796;-83
2023/03/10 02:21:48;;;;;;;14.30;5.90;;;;;;;3.17;59.84;98641.93;671953;1260;138438;-85
2023/03/10 02:36:51;;;;;;;12.90;5.60;;;;;;;3.13;62.21;98617.73;672340;1260;138038;-82
2023/03/10 02:51:58;;;;;;;12.60;5.70;;;;;;;2.87;63.28;98599.02;671707;1262;138589;-82
2023/03/10 03:07:02;;;;;;;14.40;7.00;;;;;;;2.52;65.49;98565.48;673108;1257;138352;-82
2023/03/10 03:22:06;;;;;;;13.10;5.10;;;;;;;2.41;67.37;98544.27;672192;1260;138398;-81
2023/03/10 03:37:24;;;;;;;8.20;4.50;;;;;;;2.43;67.36;98525.48;648965;1299;545543;-81
2023/03/10 03:52:28;;;;;;;9.70;5.20;;;;;;;2.43;68.81;98490.77;666003;1276;137741;-80
2023/03/10 04:07:32;;;;;;;17.20;11.10;;;;;;;2.34;69.86;98459.94;669559;1275;137903;-79
2023/03/10 04:22:37;;;;;;;193.00;86.50;;;;;;;2.37;69.84;98438.98;668221;1271;138625;-79
2023/03/10 04:37:41;;;;;;;15.90;8.30;;;;;;;2.44;70.14;98406.52;667836;1273;138684;-82
2023/03/10 04:52:45;;;;;;;15.80;7.90;;;;;;;2.43;70.40;98383.46;667730;1272;137999;-81
2023/03/10 05:07:48;;;;;;;47.30;20.90;;;;;;;2.41;71.52;98353.73;670839;1272;138630;-81
2023/03/10 05:22:54;;;;;;;59.80;20.90;;;;;;;2.45;72.62;98317.01;667996;1273;138249;-80
2023/03/10 05:37:57;;;;;;;27.60;13.20;;;;;;;2.49;72.87;98288.91;668881;1271;138622;-82
2023/03/10 05:53:02;;;;;;;25.00;11.80;;;;;;;2.44;73.75;98269.29;670767;1268;141379;-80
2023/03/10 06:08:05;;;;;;;23.40;13.70;;;;;;;2.47;74.29;98248.86;668713;1271;138683;-80
2023/03/10 06:23:08;;;;;;;50.10;20.90;;;;;;;2.44;75.11;98231.99;666346;1267;139113;-80
2023/03/10 06:38:13;;;;;;;52.40;22.00;;;;;;;2.63;75.98;98205.71;666171;1268;139102;-82
2023/03/10 06:53:18;;;;;;;33.40;14.90;;;;;;;2.68;76.60;98182.33;668333;1272;139332;-84
2023/03/10 07:08:21;;;;;;;26.50;13.50;;;;;;;2.78;76.67;98177.60;670231;1268;139033;-81
2023/03/10 07:23:25;;;;;;;56.90;29.20;;;;;;;2.97;76.79;98156.30;669949;1271;138643;-86
2023/03/10 07:38:28;;;;;;;25.30;12.70;;;;;;;3.06;77.43;98138.39;668901;1269;138750;-80
2023/03/10 07:53:32;;;;;;;24.00;11.30;;;;;;;3.26;76.62;98149.98;669121;1269;139108;-82
2023/03/10 08:08:35;;;;;;;147.90;66.80;;;;;;;3.50;76.48;98144.15;668524;1272;138989;-79
2023/03/10 08:23:39;;;;;;;322.90;135.20;;;;;;;3.62;77.15;98117.71;667084;1272;139839;-83
2023/03/10 08:38:42;;;;;;;85.20;33.50;;;;;;;3.58;78.00;98073.23;671174;1268;139806;-80
2023/03/10 08:53:52;;;;;;;130.20;49.10;;;;;;;3.65;77.77;98051.73;670434;1266;140078;-83
2023/03/10 09:08:56;;;;;;;29.70;15.00;;;;;;;3.87;78.71;98026.81;668665;1270;139162;-80
2023/03/10 09:24:02;;;;;;;200.10;59.70;;;;;;;4.04;78.65;97994.16;671652;1272;138289;-86
2023/03/10 09:39:05;;;;;;;15.20;8.50;;;;;;;3.92;79.45;97964.10;670116;1271;145190;-85
2023/03/10 09:54:55;;;;;;;40.70;18.60;;;;;;;3.95;79.93;97951.02;668429;1271;139621;-84
2023/03/10 10:10:13;;;;;;;113.30;40.40;;;;;;;4.06;81.55;97944.32;669035;1269;138771;-85
2023/03/10 10:25:20;;;;;;;137.20;52.30;;;;;;;4.07;81.04;97938.06;671265;1272;139829;-84
2023/03/10 10:40:27;;;;;;;49.60;25.40;;;;;;;4.30;81.52;97918.54;667712;1272;138373;-82
2023/03/10 10:55:50;;;;;;;;;;;;;;;4.50;81.73;97891.73;668175;1275;138467;-85
2023/03/10 11:11:30;;;;;;;30.60;17.80;;;;;;;4.51;82.36;97867.41;671191;1272;126835;-87
2023/03/10 11:26:48;;;;;;;56.70;28.60;;;;;;;4.68;83.07;97851.81;668264;1270;138813;-86
2023/03/10 11:42:02;;;;;;;45.60;23.20;;;;;;;4.74;82.96;97843.08;670436;1272;138631;-84
2023/03/10 11:57:15;;;;;;;210.60;74.70;;;;;;;4.82;83.05;97833.46;667907;1272;138730;-83
2023/03/10 12:12:27;;;;;;;76.10;31.50;;;;;;;5.03;83.32;97833.89;671643;1272;139642;-83
2023/03/10 12:28:10;;;;;;;41.80;21.30;;;;;;;5.32;83.32;97827.79;669736;1272;138117;-84
2023/03/10 12:43:45;;;;;;;66.50;34.50;;;;;;;5.52;83.52;97807.80;669384;1268;138471;-84
2023/03/10 12:58:56;;;;;;;49.30;26.80;;;;;;;5.43;83.74;97816.85;667369;1282;138688;-82
2023/03/10 13:14:13;;;;;;;54.70;27.40;;;;;;;5.34;83.10;97813.11;669051;1272;138606;-83
2023/03/10 13:29:19;;;;;;;55.60;26.70;;;;;;;5.49;82.92;97820.73;669395;1268;138715;-84
2023/03/10 13:44:31;;;;;;;135.60;56.90;;;;;;;5.65;83.32;97818.72;668532;1269;138453;-85
2023/03/10 13:59:36;;;;;;;341.70;119.00;;;;;;;5.88;83.30;97823.19;668411;1269;139375;-84
2023/03/10 14:14:41;;;;;;;263.00;96.50;;;;;;;5.87;83.49;97812.42;666586;1266;139091;-83
2023/03/10 14:29:50;;;;;;;137.30;53.10;;;;;;;6.01;83.27;97817.52;667705;1271;139791;-82
2023/03/10 14:44:54;;;;;;;114.00;48.10;;;;;;;6.07;84.15;97814.23;668428;1273;138420;-82
2023/03/10 14:59:57;;;;;;;724.20;250.40;;;;;;;6.21;83.93;97821.16;670114;1267;138737;-83
2023/03/10 15:15:02;;;;;;;196.90;81.90;;;;;;;6.28;84.53;97816.05;670346;1266;142076;-85
2023/03/10 15:30:14;;;;;;;199.30;79.20;;;;;;;6.37;84.14;97811.92;668988;1267;138442;-84
2023/03/10 15:45:18;;;;;;;364.30;143.90;;;;;;;6.20;84.09;97808.64;669998;1276;163178;-84
2023/03/10 16:00:24;;;;;;;364.10;137.00;;;;;;;6.14;83.84;97812.68;667843;1268;138867;-84
2023/03/10 16:15:28;;;;;;;266.00;110.40;;;;;;;6.07;84.39;97813.03;667586;1269;138993;-84
2023/03/10 16:30:31;;;;;;;396.40;169.90;;;;;;;6.07;84.04;97810.06;667229;1263;139052;-84
2023/03/10 16:45:36;;;;;;;432.50;176.40;;;;;;;6.10;83.84;97817.02;666653;1266;139504;-83
2023/03/10 17:00:39;;;;;;;319.90;131.10;;;;;;;6.11;83.91;97804.16;665909;1267;138829;-84
2023/03/10 17:15:43;;;;;;;334.10;146.40;;;;;;;6.11;83.58;97808.63;666926;1266;138803;-83
2023/03/10 17:30:47;;;;;;;271.10;113.80;;;;;;;6.08;84.06;97814.22;667677;1267;138818;-83
2023/03/10 17:45:55;;;;;;;238.10;103.90;;;;;;;6.05;84.66;97803.71;667118;1267;139053;-84
2023/03/10 18:01:14;;;;;;;603.60;257.40;;;;;;;6.05;84.13;97789.73;667246;1265;138897;-84
2023/03/10 18:16:27;;;;;;;388.90;152.00;;;;;;;6.00;84.37;97768.70;667316;1269;139500;-83
2023/03/10 18:31:33;;;;;;;367.70;146.50;;;;;;;6.07;84.44;97774.92;666068;1263;138814;-85
2023/03/10 18:46:36;;;;;;;383.80;157.70;;;;;;;6.13;84.61;97766.45;668123;1278;138882;-83
2023/03/10 19:01:40;;;;;;;382.60;156.40;;;;;;;6.15;84.46;97748.83;667753;1285;140781;-86
2023/03/10 19:16:44;;;;;;;474.20;207.30;;;;;;;6.14;84.34;97734.23;667568;1266;139000;-85
2023/03/10 19:31:49;;;;;;;239.10;100.60;;;;;;;6.17;85.13;97730.27;667067;1276;139232;-86
2023/03/10 19:46:54;;;;;;;234.10;92.80;;;;;;;6.18;84.63;97736.94;669230;1263;139654;-87
2023/03/10 20:02:01;;;;;;;299.70;106.00;;;;;;;6.13;84.51;97718.91;669794;1264;139859;-87
2023/03/10 20:17:05;;;;;;;247.80;101.50;;;;;;;6.10;84.74;97688.78;668852;1264;139495;-90
2023/03/10 20:32:09;;;;;;;202.40;82.60;;;;;;;6.08;84.58;97676.53;672359;1263;138885;-89
2023/03/10 20:47:12;;;;;;;216.60;87.90;;;;;;;6.11;84.04;97668.81;672232;1259;138463;-91
2023/03/10 21:02:17;;;;;;;216.10;86.60;;;;;;;6.08;84.54;97665.43;671509;1264;139916;-92
2023/03/10 21:17:21;;;;;;;219.60;90.10;;;;;;;6.07;84.07;97649.24;674031;1262;139915;-91
2023/03/10 21:32:25;;;;;;;301.40;113.40;;;;;;;6.10;84.64;97634.04;673586;1263;138450;-90
2023/03/10 21:47:29;;;;;;;179.80;73.10;;;;;;;6.05;84.42;97599.63;670555;1261;138912;-91
2023/03/10 22:02:34;;;;;;;160.60;63.40;;;;;;;6.04;84.55;97592.04;672106;1265;139077;-91
2023/03/10 22:17:38;;;;;;;110.10;46.70;;;;;;;6.08;84.54;97577.42;671391;1261;139206;-90
2023/03/10 22:32:41;;;;;;;114.60;45.20;;;;;;;6.00;84.26;97556.16;672800;1264;138671;-92
2023/03/10 22:47:45;;;;;;;95.50;40.30;;;;;;;5.96;84.42;97538.52;672072;1264;139009;-92
2023/03/10 23:02:50;;;;;;;122.30;49.70;;;;;;;5.95;84.15;97521.23;671939;1265;138476;-92
2023/03/10 23:17:55;;;;;;;169.30;61.80;;;;;;;5.90;84.01;97506.23;671536;1263;139697;-91
2023/03/10 23:32:58;;;;;;;171.20;64.00;;;;;;;5.94;85.17;97490.38;674146;1261;139828;-91
2023/03/10 23:48:03;;;;;;;126.10;45.80;;;;;;;5.89;84.99;97489.34;671257;1264;138604;-91
